Time;durP1;ratioP1;P1;durP2;ratioP2;P2;SDS_P1;SDS_P2;PMS_P1;PMS_P2;Temp;Humidity;BMP_temperature;BMP_pressure;BME280_temperature;BME280_humidity;BME280_pressure;Samples;Min_cycle;Max_cycle;Signal;HPM_P1;HPM_P2
2023/06/18 00:01:48;;;;;;;11.18;7.57;;;19.20;93.70;;;;;;5030889;28;20063;-69
2023/06/18 00:04:14;;;;;;;12.10;7.50;;;19.10;93.80;;;;;;5030503;28;20022;-68
2023/06/18 00:06:39;;;;;;;14.02;7.78;;;19.10;94.00;;;;;;5031402;28;20459;-69
2023/06/18 00:09:05;;;;;;;14.82;8.88;;;19.20;94.00;;;;;;5031418;28;20515;-69
2023/06/18 00:11:30;;;;;;;12.50;8.63;;;19.20;94.10;;;;;;5029811;28;20037;-68
2023/06/18 00:13:56;;;;;;;10.98;7.80;;;19.10;94.10;;;;;;5031297;28;20057;-68
2023/06/18 00:16:22;;;;;;;13.30;8.52;;;19.10;94.10;;;;;;5031592;28;20431;-68
2023/06/18 00:18:47;;;;;;;11.43;7.50;;;19.10;94.20;;;;;;5030181;28;20033;-67
2023/06/18 00:21:13;;;;;;;12.98;8.30;;;19.00;94.50;;;;;;5030849;28;20033;-67
2023/06/18 00:23:39;;;;;;;11.15;7.88;;;19.00;94.50;;;;;;5030742;28;20033;-67
2023/06/18 00:26:04;;;;;;;14.23;8.60;;;19.00;94.10;;;;;;5030811;28;20025;-68
2023/06/18 00:28:31;;;;;;;15.98;7.20;;;19.10;94.20;;;;;;5030887;28;20021;-68
2023/06/18 00:30:57;;;;;;;15.13;9.13;;;19.10;94.60;;;;;;5031316;28;20079;-68
2023/06/18 00:33:24;;;;;;;12.93;8.43;;;19.10;94.60;;;;;;5030293;28;20485;-67
2023/06/18 00:35:56;;;;;;;11.02;8.57;;;19.00;94.50;;;;;;5030766;28;20026;-67
2023/06/18 00:38:23;;;;;;;13.70;7.97;;;19.00;94.70;;;;;;5030653;28;20084;-69
2023/06/18 00:40:49;;;;;;;15.18;8.40;;;19.00;94.80;;;;;;5030656;28;20033;-67
2023/06/18 00:43:16;;;;;;;12.02;8.48;;;18.90;94.80;;;;;;5031058;28;20027;-68
2023/06/18 00:45:41;;;;;;;11.27;8.05;;;19.00;94.60;;;;;;5030342;28;20029;-68
2023/06/18 00:48:08;;;;;;;12.25;8.40;;;18.90;94.80;;;;;;5030377;28;20098;-69
2023/06/18 00:50:35;;;;;;;13.05;8.65;;;18.90;95.10;;;;;;5030279;28;20026;-67
2023/06/18 00:53:01;;;;;;;11.60;9.07;;;18.90;95.00;;;;;;5030510;28;20350;-68
2023/06/18 00:55:31;;;;;;;17.15;8.40;;;18.90;95.10;;;;;;5030556;28;20037;-69
2023/06/18 00:58:01;;;;;;;13.52;8.60;;;18.90;95.30;;;;;;5049217;28;20363;-68
2023/06/18 01:00:36;;;;;;;12.50;8.88;;;18.90;95.20;;;;;;5048899;28;20025;-68
2023/06/18 01:03:12;;;;;;;13.70;8.73;;;18.80;95.30;;;;;;5048942;28;20562;-68
2023/06/18 01:05:37;;;;;;;13.50;8.98;;;18.80;95.50;;;;;;5054269;28;20035;-67
2023/06/18 01:08:07;;;;;;;11.77;8.75;;;18.80;95.20;;;;;;5054283;28;20025;-69
2023/06/18 01:10:38;;;;;;;15.13;9.55;;;18.80;95.40;;;;;;5053872;28;20048;-67
2023/06/18 01:13:07;;;;;;;11.88;8.98;;;18.80;95.50;;;;;;5054420;28;20013;-67
2023/06/18 01:15:33;;;;;;;14.65;9.07;;;18.70;95.60;;;;;;5052756;28;20029;-68
2023/06/18 01:18:00;;;;;;;13.05;9.05;;;18.60;95.60;;;;;;5053885;28;20048;-68
2023/06/18 01:20:27;;;;;;;15.98;10.20;;;18.70;95.40;;;;;;5053884;28;20112;-69
2023/06/18 01:23:06;;;;;;;15.33;10.27;;;18.60;95.60;;;;;;5053543;28;20032;-68
2023/06/18 01:25:32;;;;;;;16.33;10.73;;;18.60;95.90;;;;;;5069874;28;20028;-67
2023/06/18 01:28:03;;;;;;;14.02;10.25;;;18.60;96.00;;;;;;5074519;28;20029;-67
2023/06/18 01:30:29;;;;;;;13.63;9.75;;;18.60;95.90;;;;;;5073616;28;20481;-67
2023/06/18 01:32:54;;;;;;;16.05;10.18;;;18.50;96.10;;;;;;5073336;28;20044;-67
2023/06/18 01:35:21;;;;;;;15.77;10.20;;;18.50;96.10;;;;;;5067705;28;20044;-69
2023/06/18 01:38:08;;;;;;;13.23;9.82;;;18.50;96.10;;;;;;5052477;28;20032;-67
2023/06/18 01:40:36;;;;;;;13.23;10.10;;;18.50;96.30;;;;;;5052275;28;20083;-69
2023/06/18 01:43:39;;;;;;;14.63;10.20;;;18.40;96.30;;;;;;5054887;28;20017;-70
2023/06/18 01:46:09;;;;;;;15.43;9.73;;;18.40;96.40;;;;;;5019674;28;20176;-68
2023/06/18 01:48:38;;;;;;;15.10;10.65;;;18.30;96.50;;;;;;5032102;28;20033;-69
2023/06/18 01:51:05;;;;;;;14.70;9.80;;;18.20;96.60;;;;;;5033235;28;20116;-67
2023/06/18 01:53:34;;;;;;;13.48;9.88;;;18.30;96.50;;;;;;5033287;28;20038;-68
2023/06/18 01:56:01;;;;;;;17.77;10.43;;;18.20;96.60;;;;;;5032158;28;20030;-69
2023/06/18 01:58:31;;;;;;;15.20;10.52;;;18.20;96.60;;;;;;5032863;28;20087;-67
2023/06/18 02:00:58;;;;;;;12.80;9.38;;;18.20;96.70;;;;;;5053679;28;20037;-67
2023/06/18 02:03:24;;;;;;;14.60;9.70;;;18.20;96.70;;;;;;5051864;28;20319;-69
2023/06/18 02:05:50;;;;;;;15.32;9.45;;;18.10;96.90;;;;;;5041842;28;20487;-67
2023/06/18 02:08:16;;;;;;;17.38;10.77;;;18.00;96.90;;;;;;5032938;28;20128;-67
2023/06/18 02:10:42;;;;;;;16.58;9.60;;;18.10;96.70;;;;;;5031873;28;20040;-67
2023/06/18 02:13:09;;;;;;;13.57;9.98;;;18.20;96.40;;;;;;5033712;28;20029;-68
2023/06/18 02:15:35;;;;;;;16.58;10.90;;;18.30;96.20;;;;;;5030818;28;20128;-66
2023/06/18 02:18:01;;;;;;;12.30;9.00;;;18.30;96.70;;;;;;5032898;28;20121;-67
2023/06/18 02:20:27;;;;;;;15.57;10.27;;;18.10;96.80;;;;;;5032908;28;20033;-67
2023/06/18 02:22:53;;;;;;;14.00;9.07;;;18.00;96.80;;;;;;5032668;28;20030;-67
2023/06/18 02:25:19;;;;;;;18.73;10.48;;;18.00;97.10;;;;;;5033139;28;20333;-68
2023/06/18 02:27:57;;;;;;;16.95;9.40;;;17.90;97.10;;;;;;5032650;28;20104;-66
2023/06/18 02:30:24;;;;;;;13.98;10.00;;;17.90;97.30;;;;;;5031745;28;20053;-67
2023/06/18 02:32:50;;;;;;;14.68;9.52;;;17.80;97.20;;;;;;5032435;28;20140;-67
2023/06/18 02:35:16;;;;;;;15.07;9.73;;;17.80;97.20;;;;;;5031536;28;20068;-67
2023/06/18 02:37:42;;;;;;;15.05;10.23;;;17.80;97.20;;;;;;5032425;28;20029;-67
2023/06/18 02:40:09;;;;;;;15.23;9.88;;;17.70;97.40;;;;;;5033059;28;20043;-67
2023/06/18 02:42:35;;;;;;;18.40;10.57;;;17.70;97.50;;;;;;5032496;28;20045;-67
2023/06/18 02:45:03;;;;;;;15.32;10.15;;;17.80;97.30;;;;;;5032383;28;20400;-66
2023/06/18 02:47:28;;;;;;;13.77;9.60;;;17.80;97.40;;;;;;5032458;28;20064;-67
2023/06/18 02:49:54;;;;;;;13.48;9.63;;;17.80;97.40;;;;;;5031957;28;20049;-67
2023/06/18 02:52:20;;;;;;;13.85;10.45;;;17.70;97.50;;;;;;5031308;28;20044;-66
2023/06/18 02:54:46;;;;;;;16.63;10.45;;;17.60;97.40;;;;;;5032142;28;20120;-66
2023/06/18 02:57:11;;;;;;;17.50;10.50;;;17.60;97.60;;;;;;5032086;28;20479;-66
2023/06/18 02:59:37;;;;;;;17.17;9.88;;;17.60;97.80;;;;;;5032149;28;20057;-67
2023/06/18 03:02:04;;;;;;;16.17;10.32;;;17.50;97.90;;;;;;5032176;28;20112;-66
2023/06/18 03:04:30;;;;;;;16.23;9.63;;;17.50;97.80;;;;;;5032043;28;20018;-67
2023/06/18 03:06:59;;;;;;;14.88;10.43;;;17.40;97.80;;;;;;5032371;28;20073;-67
2023/06/18 03:09:27;;;;;;;15.13;10.00;;;17.40;97.80;;;;;;5032221;28;20037;-67
2023/06/18 03:11:52;;;;;;;14.07;9.73;;;17.40;97.90;;;;;;5031915;28;20041;-66
2023/06/18 03:14:21;;;;;;;15.88;10.98;;;17.40;97.90;;;;;;5031771;28;20029;-66
2023/06/18 03:16:47;;;;;;;13.88;9.88;;;17.30;98.10;;;;;;5031788;28;20502;-65
2023/06/18 03:19:13;;;;;;;16.77;10.90;;;17.30;98.00;;;;;;5032130;28;20329;-65
2023/06/18 03:21:39;;;;;;;15.10;10.48;;;17.30;98.10;;;;;;5031752;28;20049;-66
2023/06/18 03:24:06;;;;;;;17.58;11.10;;;17.40;98.00;;;;;;5031657;28;20367;-65
2023/06/18 03:26:35;;;;;;;16.73;10.52;;;17.40;98.10;;;;;;5031073;28;20501;-65
2023/06/18 03:29:04;;;;;;;14.30;10.30;;;17.30;98.10;;;;;;5031676;28;20040;-66
2023/06/18 03:31:31;;;;;;;18.00;10.18;;;17.30;98.10;;;;;;5031535;28;20429;-66
2023/06/18 03:34:01;;;;;;;17.00;10.70;;;17.20;98.20;;;;;;5031816;28;20039;-66
2023/06/18 03:36:31;;;;;;;18.00;11.00;;;17.20;98.30;;;;;;5031309;28;20030;-66
2023/06/18 03:38:57;;;;;;;19.23;10.68;;;17.20;98.40;;;;;;5030056;28;20064;-66
2023/06/18 03:41:23;;;;;;;17.92;10.38;;;17.30;98.40;;;;;;5031205;28;20073;-66
2023/06/18 03:43:48;;;;;;;14.88;11.13;;;17.30;98.30;;;;;;5030022;28;20920;-65
2023/06/18 03:46:14;;;;;;;15.70;10.52;;;17.20;98.20;;;;;;5031467;28;20025;-67
2023/06/18 03:48:41;;;;;;;15.98;11.02;;;17.20;98.30;;;;;;5031194;28;20124;-67
2023/06/18 03:51:07;;;;;;;18.23;11.20;;;17.20;98.50;;;;;;5030921;28;20029;-65
2023/06/18 03:53:36;;;;;;;17.38;10.23;;;17.10;98.60;;;;;;5031091;28;20042;-67
2023/06/18 03:56:05;;;;;;;16.20;10.90;;;17.10;98.70;;;;;;5030850;28;20410;-66
2023/06/18 03:58:31;;;;;;;15.73;10.32;;;17.10;98.60;;;;;;5029830;28;20022;-65
2023/06/18 04:00:57;;;;;;;13.63;10.25;;;17.10;98.70;;;;;;5031601;28;20115;-66
2023/06/18 04:03:23;;;;;;;13.43;9.30;;;17.20;98.60;;;;;;5029609;28;20033;-67
2023/06/18 04:05:49;;;;;;;14.52;10.27;;;17.30;98.50;;;;;;5030727;28;20099;-67
2023/06/18 04:08:15;;;;;;;17.65;10.43;;;17.40;98.20;;;;;;5030724;28;20424;-67
2023/06/18 04:10:41;;;;;;;14.57;10.18;;;17.40;98.50;;;;;;5030683;28;20555;-67
2023/06/18 04:13:07;;;;;;;14.10;10.52;;;17.30;98.50;;;;;;5031135;28;20032;-67
2023/06/18 04:15:33;;;;;;;14.75;10.57;;;17.40;98.60;;;;;;5030716;28;20038;-66
2023/06/18 04:17:58;;;;;;;19.77;10.32;;;17.50;98.50;;;;;;5030633;28;20030;-65
2023/06/18 04:20:24;;;;;;;15.80;10.68;;;17.50;98.70;;;;;;5030560;28;20034;-67
2023/06/18 04:22:50;;;;;;;13.95;10.15;;;17.40;98.60;;;;;;5030329;28;20037;-66
2023/06/18 04:25:16;;;;;;;18.15;11.07;;;17.50;98.60;;;;;;5031221;28;20183;-66
2023/06/18 04:27:42;;;;;;;17.55;11.60;;;17.40;98.70;;;;;;5030682;28;20025;-66
2023/06/18 04:30:08;;;;;;;14.95;10.65;;;17.50;98.80;;;;;;5030508;28;20034;-66
2023/06/18 04:32:34;;;;;;;14.38;10.15;;;17.50;98.80;;;;;;5030045;28;20049;-66
2023/06/18 04:34:59;;;;;;;14.25;9.75;;;17.50;98.80;;;;;;5029174;28;20490;-66
2023/06/18 04:37:25;;;;;;;15.40;11.18;;;17.50;98.80;;;;;;5030569;28;20052;-65
2023/06/18 04:39:51;;;;;;;16.20;10.48;;;17.60;98.80;;;;;;5029831;28;20450;-67
2023/06/18 04:42:16;;;;;;;15.48;11.15;;;17.60;98.90;;;;;;5030241;28;20037;-67
2023/06/18 04:44:42;;;;;;;16.33;10.55;;;17.70;98.60;;;;;;5030160;28;20048;-66
2023/06/18 04:47:08;;;;;;;14.70;10.40;;;17.80;98.90;;;;;;5030359;28;20116;-68
2023/06/18 04:49:34;;;;;;;16.58;10.02;;;17.90;98.60;;;;;;5029985;28;20071;-67
2023/06/18 04:51:59;;;;;;;16.63;10.18;;;17.90;98.70;;;;;;5030617;28;20029;-68
2023/06/18 04:54:26;;;;;;;15.32;10.32;;;17.90;98.70;;;;;;5030297;28;20108;-66
2023/06/18 04:56:52;;;;;;;15.50;10.75;;;17.90;98.90;;;;;;5029993;28;20036;-66
2023/06/18 04:59:19;;;;;;;18.25;12.30;;;17.90;98.90;;;;;;5030276;28;20129;-68
2023/06/18 05:01:44;;;;;;;19.65;11.52;;;18.00;99.00;;;;;;5030029;28;20036;-68
2023/06/18 05:04:10;;;;;;;17.42;11.93;;;18.10;99.20;;;;;;5030548;28;20025;-67
2023/06/18 05:06:35;;;;;;;17.83;12.57;;;18.20;99.00;;;;;;5030111;28;20427;-67
2023/06/18 05:09:02;;;;;;;21.25;12.50;;;18.20;99.10;;;;;;5030102;28;20033;-67
2023/06/18 05:11:27;;;;;;;19.52;13.07;;;18.30;99.00;;;;;;5030033;28;20042;-67
2023/06/18 05:13:53;;;;;;;25.77;12.80;;;18.40;99.00;;;;;;5030120;28;20095;-67
2023/06/18 05:16:19;;;;;;;22.35;13.95;;;18.40;98.90;;;;;;5030578;28;20375;-67
2023/06/18 05:18:44;;;;;;;20.90;13.15;;;18.50;98.90;;;;;;5030046;28;20053;-67
2023/06/18 05:21:10;;;;;;;22.92;13.48;;;18.60;98.70;;;;;;5030128;28;20431;-69
2023/06/18 05:23:35;;;;;;;20.77;13.13;;;18.60;98.50;;;;;;5029895;28;20038;-69
2023/06/18 05:26:01;;;;;;;26.92;13.98;;;18.70;98.60;;;;;;5030161;28;20037;-67
2023/06/18 05:28:27;;;;;;;21.50;13.48;;;18.80;98.40;;;;;;5029214;28;20029;-67
2023/06/18 05:30:53;;;;;;;22.23;13.73;;;18.80;98.50;;;;;;5029745;28;20120;-68
2023/06/18 05:33:18;;;;;;;18.73;12.82;;;18.90;98.50;;;;;;5029716;28;20034;-68
2023/06/18 05:35:44;;;;;;;23.40;13.23;;;19.00;98.60;;;;;;5028642;28;20033;-68
2023/06/18 05:38:10;;;;;;;20.88;12.68;;;19.00;98.40;;;;;;5030044;28;20057;-68
2023/06/18 05:40:35;;;;;;;20.40;13.18;;;19.10;98.40;;;;;;5029861;28;20119;-67
2023/06/18 05:43:01;;;;;;;19.35;11.85;;;19.20;98.30;;;;;;5030131;28;20053;-68
2023/06/18 05:45:26;;;;;;;20.08;12.38;;;19.30;98.40;;;;;;5029918;28;20373;-68
2023/06/18 05:47:52;;;;;;;16.20;11.45;;;19.30;98.30;;;;;;5029959;28;20565;-68
2023/06/18 05:50:18;;;;;;;16.20;11.55;;;19.40;98.20;;;;;;5031726;28;20049;-68
2023/06/18 05:52:43;;;;;;;23.70;11.70;;;19.40;98.10;;;;;;5033296;28;20040;-68
2023/06/18 05:55:09;;;;;;;17.35;11.15;;;19.60;98.00;;;;;;5033825;28;20025;-68
2023/06/18 05:57:35;;;;;;;19.27;12.18;;;19.70;98.10;;;;;;5033370;28;20396;-67
2023/06/18 06:00:01;;;;;;;20.30;12.70;;;19.70;98.00;;;;;;5032129;28;20341;-66
2023/06/18 06:02:26;;;;;;;21.15;11.57;;;19.80;97.70;;;;;;5033106;28;20036;-67
2023/06/18 06:04:52;;;;;;;16.40;10.85;;;19.90;97.40;;;;;;5033153;28;20444;-67
2023/06/18 06:07:18;;;;;;;17.67;11.07;;;19.90;97.20;;;;;;5033730;28;20340;-67
2023/06/18 06:09:43;;;;;;;13.55;10.18;;;20.10;96.70;;;;;;5033195;28;20029;-66
2023/06/18 06:12:10;;;;;;;16.17;10.48;;;20.10;96.80;;;;;;5033058;28;20037;-67
2023/06/18 06:14:36;;;;;;;16.50;11.57;;;20.20;96.80;;;;;;5033034;28;20467;-67
2023/06/18 06:17:02;;;;;;;13.23;10.40;;;20.30;96.60;;;;;;5033015;28;20036;-68
2023/06/18 06:19:28;;;;;;;19.70;11.90;;;20.30;96.50;;;;;;5033863;28;20025;-66
2023/06/18 06:21:54;;;;;;;16.83;10.48;;;20.40;96.20;;;;;;5032802;28;20034;-66
2023/06/18 06:24:20;;;;;;;15.63;10.25;;;20.40;96.30;;;;;;5032733;28;20368;-67
2023/06/18 06:26:46;;;;;;;15.88;9.40;;;20.50;96.30;;;;;;5033077;28;20034;-67
2023/06/18 06:29:11;;;;;;;24.38;15.73;;;20.50;96.00;;;;;;5031673;28;20116;-67
2023/06/18 06:31:37;;;;;;;16.10;10.98;;;20.60;96.00;;;;;;5032314;28;20416;-67
2023/06/18 06:34:03;;;;;;;13.90;9.40;;;20.70;95.60;;;;;;5033317;28;20041;-68
2023/06/18 06:36:29;;;;;;;13.52;9.57;;;20.90;95.50;;;;;;5031345;28;20018;-68
2023/06/18 06:38:54;;;;;;;14.27;9.10;;;20.90;95.20;;;;;;5032457;28;20025;-67
2023/06/18 06:41:20;;;;;;;11.43;8.60;;;21.00;95.10;;;;;;5032682;28;20372;-68
2023/06/18 06:43:46;;;;;;;15.55;9.35;;;21.10;95.20;;;;;;5032341;28;20037;-67
2023/06/18 06:46:11;;;;;;;16.95;8.60;;;21.10;95.10;;;;;;5032915;28;20033;-66
2023/06/18 06:48:38;;;;;;;12.55;8.60;;;21.20;95.10;;;;;;5032409;28;20421;-69
2023/06/18 06:51:04;;;;;;;11.75;8.80;;;21.30;94.80;;;;;;5039233;28;20064;-68
2023/06/18 06:53:29;;;;;;;13.30;7.95;;;21.30;94.60;;;;;;5053170;28;20099;-68
2023/06/18 06:55:55;;;;;;;14.45;8.07;;;21.40;94.20;;;;;;5053270;28;20327;-67
2023/06/18 06:58:21;;;;;;;13.52;8.40;;;21.50;93.90;;;;;;5053520;28;20059;-68
2023/06/18 07:00:47;;;;;;;13.88;7.95;;;21.60;93.70;;;;;;5052641;28;20413;-67
2023/06/18 07:03:13;;;;;;;9.85;7.65;;;21.60;93.70;;;;;;5053031;28;20033;-69
2023/06/18 07:05:38;;;;;;;14.40;7.65;;;21.70;93.70;;;;;;5052814;28;20032;-67
2023/06/18 07:08:05;;;;;;;12.90;7.47;;;21.90;93.10;;;;;;5053063;28;20025;-67
2023/06/18 07:10:32;;;;;;;13.63;7.50;;;22.00;92.70;;;;;;5052859;28;20021;-67
2023/06/18 07:12:57;;;;;;;10.27;7.50;;;22.10;92.50;;;;;;5053339;28;20426;-66
2023/06/18 07:15:23;;;;;;;11.40;8.07;;;22.20;92.30;;;;;;5052996;28;20556;-66
2023/06/18 07:17:49;;;;;;;13.75;9.40;;;22.30;92.20;;;;;;5052836;28;20033;-67
2023/06/18 07:20:14;;;;;;;12.50;8.07;;;22.50;92.10;;;;;;5052357;28;20021;-70
2023/06/18 07:22:40;;;;;;;10.40;7.45;;;22.50;91.80;;;;;;5051740;28;20116;-66
2023/06/18 07:25:06;;;;;;;10.15;7.75;;;22.70;91.70;;;;;;5050987;28;20021;-66
2023/06/18 07:27:34;;;;;;;11.82;7.45;;;22.80;91.40;;;;;;5050481;28;20041;-66
2023/06/18 07:29:59;;;;;;;10.85;7.18;;;22.80;90.90;;;;;;5051678;28;20037;-65
2023/06/18 07:32:25;;;;;;;9.95;7.55;;;22.90;90.60;;;;;;5051227;28;20105;-67
2023/06/18 07:34:51;;;;;;;13.68;7.28;;;22.90;90.90;;;;;;5051314;28;20032;-65
2023/06/18 07:37:16;;;;;;;10.20;7.15;;;22.90;90.40;;;;;;5051644;28;20052;-67
2023/06/18 07:39:42;;;;;;;12.07;7.50;;;22.90;90.40;;;;;;5051517;28;20033;-67
2023/06/18 07:42:08;;;;;;;10.60;7.45;;;22.90;90.30;;;;;;5051462;28;20025;-67
2023/06/18 07:44:33;;;;;;;11.75;7.28;;;22.90;90.30;;;;;;5051150;28;20069;-66
2023/06/18 07:46:59;;;;;;;10.95;7.70;;;23.10;90.20;;;;;;5045388;28;20083;-67
2023/06/18 07:49:25;;;;;;;13.07;8.00;;;23.10;90.10;;;;;;5052716;28;20032;-66
2023/06/18 07:51:50;;;;;;;10.68;7.55;;;23.30;90.10;;;;;;5050944;28;20467;-70
2023/06/18 07:54:16;;;;;;;12.93;7.97;;;23.60;89.70;;;;;;5052010;28;20021;-67
2023/06/18 07:56:42;;;;;;;10.13;7.72;;;23.70;88.70;;;;;;5052318;28;20056;-69
2023/06/18 07:59:08;;;;;;;12.18;7.75;;;23.80;88.30;;;;;;5052028;28;20037;-67
2023/06/18 08:01:34;;;;;;;8.85;6.70;;;24.10;88.40;;;;;;5050337;28;20040;-68
2023/06/18 08:04:00;;;;;;;10.10;7.50;;;24.30;89.00;;;;;;5051349;28;20362;-68
2023/06/18 08:06:26;;;;;;;11.45;7.93;;;24.50;88.10;;;;;;5051710;28;20041;-69
2023/06/18 08:08:52;;;;;;;13.20;8.35;;;24.60;86.20;;;;;;5050590;28;20033;-68
2023/06/18 08:11:17;;;;;;;12.63;8.02;;;24.70;86.50;;;;;;5051866;28;20636;-69
2023/06/18 08:13:44;;;;;;;11.10;8.05;;;24.90;86.80;;;;;;5050984;28;20104;-68
2023/06/18 08:16:10;;;;;;;11.40;7.63;;;24.90;86.70;;;;;;5051765;28;20021;-67
2023/06/18 08:18:36;;;;;;;14.32;8.18;;;25.10;86.30;;;;;;5050574;28;20320;-69
2023/06/18 08:21:02;;;;;;;11.90;6.80;;;25.10;85.80;;;;;;5051268;28;20044;-69
2023/06/18 08:23:28;;;;;;;9.82;7.65;;;25.30;85.50;;;;;;5051313;28;20048;-69
2023/06/18 08:25:55;;;;;;;13.10;7.28;;;25.40;83.90;;;;;;5051430;28;20033;-68
2023/06/18 08:28:21;;;;;;;10.73;7.53;;;25.50;83.50;;;;;;5052182;28;20022;-67
2023/06/18 08:30:46;;;;;;;11.18;6.55;;;25.50;82.20;;;;;;5051425;28;20033;-69
2023/06/18 08:33:12;;;;;;;11.35;7.45;;;25.70;83.60;;;;;;5050191;28;20037;-70
2023/06/18 08:35:38;;;;;;;8.77;6.05;;;26.10;82.30;;;;;;5051489;28;20045;-69
2023/06/18 08:38:04;;;;;;;10.50;6.50;;;26.40;81.00;;;;;;5051259;28;20116;-71
2023/06/18 08:40:37;;;;;;;9.88;6.35;;;26.70;80.30;;;;;;5051329;28;20071;-68
2023/06/18 08:43:04;;;;;;;9.98;6.72;;;27.00;78.60;;;;;;5050505;28;20198;-69
2023/06/18 08:45:30;;;;;;;13.15;5.30;;;27.20;77.50;;;;;;5050917;28;20029;-69
2023/06/18 08:47:59;;;;;;;9.85;6.82;;;27.60;78.30;;;;;;5051204;28;20029;-65
2023/06/18 08:50:27;;;;;;;8.77;6.03;;;28.00;75.40;;;;;;5050964;28;20111;-66
2023/06/18 08:52:59;;;;;;;10.05;6.00;;;28.60;73.50;;;;;;5050395;28;20087;-68
2023/06/18 08:55:26;;;;;;;10.18;6.55;;;29.10;72.20;;;;;;5051850;28;20033;-68
2023/06/18 08:57:59;;;;;;;13.53;5.77;;;29.60;72.10;;;;;;5049761;28;20025;-69
2023/06/18 09:00:24;;;;;;;8.30;5.53;;;30.30;69.50;;;;;;5051236;28;20290;-69
2023/06/18 09:02:52;;;;;;;12.57;5.82;;;31.00;66.70;;;;;;5050415;28;20113;-68
2023/06/18 09:05:18;;;;;;;9.98;5.72;;;31.50;66.80;;;;;;5050100;28;20500;-68
2023/06/18 09:07:44;;;;;;;11.82;6.05;;;31.90;61.70;;;;;;5051141;28;20799;-69
2023/06/18 09:10:10;;;;;;;9.88;5.78;;;30.90;61.10;;;;;;5051579;28;20040;-69
2023/06/18 09:12:36;;;;;;;6.85;5.53;;;31.00;64.90;;;;;;5051072;28;20029;-68
2023/06/18 09:15:02;;;;;;;9.52;6.03;;;31.50;63.60;;;;;;5050715;28;20025;-69
2023/06/18 09:17:28;;;;;;;9.65;5.68;;;32.20;60.50;;;;;;5051077;28;20033;-68
2023/06/18 09:19:54;;;;;;;8.52;6.13;;;31.60;59.00;;;;;;5051004;28;20021;-68
2023/06/18 09:22:21;;;;;;;8.02;5.63;;;31.00;61.90;;;;;;5051453;28;20071;-68
2023/06/18 09:24:55;;;;;;;9.45;5.85;;;31.50;61.40;;;;;;5051939;28;20125;-67
2023/06/18 09:27:20;;;;;;;10.15;5.95;;;30.90;60.70;;;;;;5053674;28;20033;-67
2023/06/18 09:29:46;;;;;;;12.90;5.63;;;30.60;59.90;;;;;;5053557;28;20075;-68
2023/06/18 09:32:14;;;;;;;10.18;6.80;;;30.40;60.60;;;;;;5054716;28;20041;-69
2023/06/18 09:34:40;;;;;;;9.25;6.13;;;30.10;60.30;;;;;;5053992;28;20421;-68
2023/06/18 09:37:07;;;;;;;8.93;5.68;;;29.60;62.80;;;;;;5053909;28;20072;-68
2023/06/18 09:39:35;;;;;;;8.68;6.28;;;29.80;61.90;;;;;;5053905;28;20102;-69
2023/06/18 09:42:11;;;;;;;6.47;5.65;;;29.70;61.60;;;;;;5053457;28;20108;-70
2023/06/18 09:44:37;;;;;;;6.75;5.32;;;29.60;61.90;;;;;;5053250;28;20441;-68
2023/06/18 09:47:10;;;;;;;7.13;5.43;;;29.60;61.50;;;;;;5053301;28;20020;-69
2023/06/18 09:49:37;;;;;;;7.78;5.47;;;29.50;61.40;;;;;;5053268;28;20036;-69
2023/06/18 09:52:05;;;;;;;17.45;4.72;;;29.80;60.30;;;;;;5053966;28;20036;-69
2023/06/18 09:54:39;;;;;;;7.80;6.43;;;29.50;59.10;;;;;;5053075;28;20140;-69
2023/06/18 09:57:06;;;;;;;8.32;5.63;;;29.40;59.00;;;;;;5053112;28;20033;-69
2023/06/18 09:59:32;;;;;;;8.25;5.43;;;29.10;58.80;;;;;;5053052;28;20037;-69
2023/06/18 10:01:57;;;;;;;8.15;5.43;;;29.00;59.20;;;;;;5052903;28;20029;-68
2023/06/18 10:04:25;;;;;;;7.68;5.80;;;29.10;59.80;;;;;;5053432;28;20084;-68
2023/06/18 10:06:59;;;;;;;7.95;5.68;;;29.20;60.50;;;;;;5052940;28;20037;-67
2023/06/18 10:09:40;;;;;;;7.00;5.40;;;29.00;60.20;;;;;;5053170;28;20049;-69
2023/06/18 10:12:06;;;;;;;6.80;4.55;;;28.90;60.10;;;;;;5053374;28;20048;-68
2023/06/18 10:14:33;;;;;;;10.63;5.55;;;28.90;60.80;;;;;;5052895;28;20033;-68
2023/06/18 10:17:07;;;;;;;10.05;5.88;;;29.20;60.70;;;;;;5051774;28;20029;-68
2023/06/18 10:19:49;;;;;;;9.48;6.20;;;29.40;60.70;;;;;;5052851;28;20040;-68
2023/06/18 10:22:16;;;;;;;6.18;5.57;;;29.40;60.50;;;;;;5053361;28;20025;-68
2023/06/18 10:24:45;;;;;;;10.77;5.60;;;29.50;60.50;;;;;;5032268;28;20293;-69
2023/06/18 10:27:11;;;;;;;10.18;6.63;;;29.50;60.60;;;;;;5033705;28;20034;-69
2023/06/18 10:29:38;;;;;;;11.55;6.80;;;29.50;61.40;;;;;;5033840;28;20041;-69
2023/06/18 10:32:04;;;;;;;7.97;6.47;;;29.40;61.20;;;;;;5033484;28;20041;-68
2023/06/18 10:34:32;;;;;;;9.32;5.53;;;29.30;61.10;;;;;;5032621;28;20021;-68
2023/06/18 10:36:59;;;;;;;8.13;6.05;;;29.00;62.30;;;;;;5033285;28;20031;-69
2023/06/18 10:39:25;;;;;;;;;;;28.80;60.50;;;;;;5033572;28;20396;-69
2023/06/18 10:41:54;;;;;;;9.20;6.15;;;28.60;60.10;;;;;;5033563;28;19921;-69
2023/06/18 10:44:54;;;;;;;10.52;6.18;;;28.80;60.30;;;;;;5033463;28;20038;-68
2023/06/18 10:47:31;;;;;;;10.32;5.72;;;29.00;60.20;;;;;;5021601;28;20022;-68
2023/06/18 10:50:03;;;;;;;10.35;6.53;;;28.80;60.60;;;;;;5033587;28;20056;-68
2023/06/18 10:52:49;;;;;;;8.25;5.93;;;29.00;61.70;;;;;;5033498;28;20037;-69
2023/06/18 10:55:17;;;;;;;9.50;6.07;;;29.10;61.10;;;;;;5033371;28;20037;-68
2023/06/18 10:57:48;;;;;;;11.38;6.20;;;29.20;61.50;;;;;;5032253;28;20037;-67
2023/06/18 11:00:28;;;;;;;10.63;6.78;;;29.20;60.70;;;;;;5032127;28;20030;-66
2023/06/18 11:02:58;;;;;;;10.25;6.28;;;29.10;61.30;;;;;;5032166;28;20033;-68
2023/06/18 11:05:36;;;;;;;9.45;6.03;;;29.00;61.10;;;;;;5032117;28;20026;-68
2023/06/18 11:08:04;;;;;;;12.15;5.72;;;29.40;60.20;;;;;;5032075;28;20189;-66
2023/06/18 11:10:34;;;;;;;9.23;5.60;;;29.40;59.20;;;;;;5032113;28;20052;-67
2023/06/18 11:13:04;;;;;;;9.55;5.50;;;29.50;59.60;;;;;;5032680;28;20087;-67
2023/06/18 11:15:30;;;;;;;5.80;4.70;;;29.50;59.00;;;;;;5032297;28;20087;-66
2023/06/18 11:18:00;;;;;;;8.20;4.90;;;29.40;57.50;;;;;;5031860;28;20034;-68
2023/06/18 11:20:30;;;;;;;10.00;7.55;;;29.30;55.80;;;;;;5031644;28;20466;-68
2023/06/18 11:22:57;;;;;;;8.75;5.10;;;29.40;57.40;;;;;;5031708;28;20037;-69
2023/06/18 11:25:24;;;;;;;9.30;5.93;;;29.40;57.80;;;;;;5032129;28;20022;-68
2023/06/18 11:27:53;;;;;;;6.63;5.10;;;29.50;57.70;;;;;;5031550;28;20030;-69
2023/06/18 11:30:19;;;;;;;9.07;5.20;;;29.50;56.60;;;;;;5031550;28;20371;-68
2023/06/18 11:32:46;;;;;;;9.80;5.10;;;29.40;56.80;;;;;;5030157;28;20046;-67
2023/06/18 11:35:12;;;;;;;9.35;5.20;;;29.50;57.30;;;;;;5031708;28;20115;-67
2023/06/18 11:37:40;;;;;;;10.13;5.90;;;29.60;56.90;;;;;;5031212;28;20463;-66
2023/06/18 11:40:07;;;;;;;11.68;5.78;;;29.60;55.90;;;;;;5031711;28;20029;-68
2023/06/18 11:42:37;;;;;;;9.25;5.63;;;29.40;56.20;;;;;;5031722;28;20029;-67
2023/06/18 11:45:05;;;;;;;8.10;5.45;;;29.20;56.30;;;;;;5031252;28;20145;-66
2023/06/18 11:47:33;;;;;;;6.38;4.80;;;29.30;56.90;;;;;;5030894;28;20030;-68
2023/06/18 11:49:59;;;;;;;7.78;5.30;;;29.50;56.80;;;;;;5031207;28;20156;-67
2023/06/18 11:52:27;;;;;;;9.50;4.97;;;29.40;56.30;;;;;;5031218;28;20438;-67
2023/06/18 11:54:54;;;;;;;5.80;3.80;;;29.30;54.70;;;;;;5031018;28;20064;-68
2023/06/18 11:57:21;;;;;;;7.32;4.60;;;29.50;52.90;;;;;;5031045;28;20124;-68
2023/06/18 11:59:51;;;;;;;4.35;3.78;;;29.50;52.20;;;;;;5030703;28;20036;-70
2023/06/18 12:02:20;;;;;;;5.28;3.90;;;29.30;51.10;;;;;;5031054;28;20025;-68
2023/06/18 12:04:46;;;;;;;5.18;3.72;;;29.40;52.60;;;;;;5031079;28;20350;-66
2023/06/18 12:07:20;;;;;;;5.28;3.72;;;29.30;52.40;;;;;;5031237;28;20404;-67
2023/06/18 12:09:48;;;;;;;7.57;3.78;;;29.40;53.10;;;;;;5031149;28;20029;-68
2023/06/18 12:12:41;;;;;;;5.97;4.00;;;29.50;52.90;;;;;;5030733;28;20379;-69
2023/06/18 12:15:11;;;;;;;8.13;3.80;;;29.40;50.90;;;;;;5030505;28;20025;-67
2023/06/18 12:17:52;;;;;;;5.63;4.45;;;29.30;52.90;;;;;;5030444;28;20037;-69
2023/06/18 12:20:24;;;;;;;5.32;3.72;;;29.30;52.90;;;;;;5030437;28;20029;-68
2023/06/18 12:22:50;;;;;;;6.82;4.60;;;29.40;52.80;;;;;;5030443;28;20105;-69
2023/06/18 12:25:17;;;;;;;5.45;3.70;;;29.50;52.20;;;;;;5031242;28;20032;-69
2023/06/18 12:27:43;;;;;;;4.82;3.70;;;29.50;52.20;;;;;;5030589;28;20128;-68
2023/06/18 12:30:11;;;;;;;7.80;3.90;;;29.40;51.30;;;;;;5030268;28;20120;-67
2023/06/18 12:32:37;;;;;;;;;;;29.40;51.20;;;;;;5030477;28;20037;-68
2023/06/18 12:35:14;;;;;;;5.90;4.05;;;29.40;50.80;;;;;;5029017;28;20298;-70
2023/06/18 12:37:44;;;;;;;6.10;4.00;;;29.50;52.70;;;;;;5051466;28;20032;-67